Time;durP1;ratioP1;P1;durP2;ratioP2;P2;SDS_P1;SDS_P2;PMS_P1;PMS_P2;Temp;Humidity;BMP_temperature;BMP_pressure;BME280_temperature;BME280_humidity;BME280_pressure;Samples;Min_cycle;Max_cycle;Signal;HPM_P1;HPM_P2
2023/08/25 00:00:43;;;;;;;2.05;1.73;;;18.90;99.90;;;;;;5024200;28;20041;-85
2023/08/25 00:03:08;;;;;;;5.43;2.53;;;18.90;99.90;;;;;;5017115;28;20028;-85
2023/08/25 00:05:38;;;;;;;2.40;2.20;;;18.90;99.90;;;;;;5018158;28;20033;-84
2023/08/25 00:08:04;;;;;;;2.45;2.20;;;18.90;99.90;;;;;;5024623;28;20484;-84
2023/08/25 00:10:29;;;;;;;2.75;1.98;;;18.90;99.90;;;;;;5017526;28;20030;-85
2023/08/25 00:12:55;;;;;;;4.82;2.58;;;18.90;99.90;;;;;;5022802;28;20057;-84
2023/08/25 00:15:21;;;;;;;3.15;2.50;;;18.90;99.90;;;;;;5013677;28;20489;-84
2023/08/25 00:17:46;;;;;;;4.63;2.70;;;18.90;99.90;;;;;;5031055;28;20013;-83
2023/08/25 00:20:12;;;;;;;2.90;2.33;;;18.90;99.90;;;;;;5018838;28;20393;-85
2023/08/25 00:22:41;;;;;;;4.32;2.67;;;18.80;99.90;;;;;;5019296;28;20074;-85
2023/08/25 00:25:08;;;;;;;3.40;2.38;;;18.80;99.90;;;;;;5018022;28;20640;-84
2023/08/25 00:27:33;;;;;;;3.03;2.70;;;18.80;99.90;;;;;;5018035;28;20750;-84
2023/08/25 00:29:59;;;;;;;4.63;2.80;;;18.80;99.90;;;;;;5023377;28;20041;-84
2023/08/25 00:32:25;;;;;;;3.78;2.80;;;18.80;99.90;;;;;;5015920;28;20038;-83
2023/08/25 00:34:51;;;;;;;5.30;2.90;;;18.80;99.90;;;;;;5022732;28;20029;-82
2023/08/25 00:37:16;;;;;;;2.65;2.40;;;18.80;99.90;;;;;;5016219;28;20493;-84
2023/08/25 00:39:42;;;;;;;3.10;2.80;;;18.80;99.90;;;;;;5018859;28;20519;-84
2023/08/25 00:42:07;;;;;;;3.08;2.78;;;18.80;99.90;;;;;;5021940;28;20064;-84
2023/08/25 00:44:33;;;;;;;3.10;2.80;;;18.80;99.90;;;;;;5009044;28;20022;-82
2023/08/25 00:46:59;;;;;;;3.22;2.92;;;18.80;99.90;;;;;;5021385;28;20673;-84
2023/08/25 00:49:25;;;;;;;3.75;3.40;;;18.70;99.90;;;;;;5017652;28;20065;-84
2023/08/25 00:51:51;;;;;;;3.40;3.10;;;18.70;99.90;;;;;;5023217;28;20116;-85
2023/08/25 00:54:20;;;;;;;7.72;3.72;;;18.70;99.90;;;;;;5014322;28;20029;-82
2023/08/25 00:56:49;;;;;;;4.05;3.60;;;18.70;99.90;;;;;;5007382;28;20029;-82
2023/08/25 00:59:15;;;;;;;4.60;3.65;;;18.70;99.90;;;;;;5012760;28;20029;-84
2023/08/25 01:01:41;;;;;;;3.58;3.28;;;18.70;99.90;;;;;;5015436;28;20399;-85
2023/08/25 01:04:07;;;;;;;4.05;3.70;;;18.70;99.90;;;;;;5018041;28;20033;-83
2023/08/25 01:06:33;;;;;;;3.97;3.13;;;18.70;99.90;;;;;;5016582;28;20444;-85
2023/08/25 01:08:59;;;;;;;6.53;3.95;;;18.70;99.90;;;;;;5019714;28;20071;-83
2023/08/25 01:11:39;;;;;;;4.00;3.38;;;18.70;99.90;;;;;;5018668;28;20696;-85
2023/08/25 01:14:26;;;;;;;4.03;3.63;;;18.70;99.90;;;;;;5018650;28;20377;-85
2023/08/25 01:17:14;;;;;;;3.85;3.50;;;18.60;99.90;;;;;;5017516;28;20048;-84
2023/08/25 01:19:56;;;;;;;4.95;4.15;;;18.60;99.90;;;;;;5016744;28;20365;-84
2023/08/25 01:22:28;;;;;;;4.53;3.55;;;18.60;99.90;;;;;;5012207;28;20030;-84
2023/08/25 01:25:01;;;;;;;4.47;4.07;;;18.60;99.90;;;;;;5008264;28;20552;-83
2023/08/25 01:27:27;;;;;;;4.97;3.83;;;18.60;99.90;;;;;;5014589;28;20445;-84
2023/08/25 01:29:53;;;;;;;5.05;4.00;;;18.50;99.90;;;;;;5022917;28;20049;-85
2023/08/25 01:32:19;;;;;;;4.47;4.07;;;18.60;99.90;;;;;;5021915;28;20037;-82
2023/08/25 01:34:46;;;;;;;4.95;4.30;;;18.60;99.90;;;;;;5033623;28;20519;-83
2023/08/25 01:37:27;;;;;;;5.10;4.25;;;18.60;99.90;;;;;;5015170;28;20389;-83
2023/08/25 01:39:57;;;;;;;4.70;4.30;;;18.60;99.90;;;;;;5002014;28;20061;-84
2023/08/25 01:42:25;;;;;;;7.90;4.57;;;18.60;99.90;;;;;;5007207;28;20022;-85
2023/08/25 01:44:52;;;;;;;4.68;4.22;;;18.60;99.90;;;;;;5009862;28;20022;-84
2023/08/25 01:47:21;;;;;;;5.50;5.00;;;18.60;99.90;;;;;;5011746;28;20117;-84
2023/08/25 01:49:47;;;;;;;5.68;5.18;;;18.60;99.90;;;;;;5021520;28;20394;-85
2023/08/25 01:52:13;;;;;;;5.53;5.03;;;18.60;99.90;;;;;;5021239;28;20033;-84
2023/08/25 01:54:38;;;;;;;6.18;5.45;;;18.70;99.90;;;;;;5021476;28;20077;-84
2023/08/25 01:57:04;;;;;;;6.78;6.18;;;18.70;99.90;;;;;;5019255;28;20597;-85
2023/08/25 01:59:30;;;;;;;7.30;5.20;;;18.70;99.90;;;;;;5010034;28;20120;-84
2023/08/25 02:01:55;;;;;;;5.80;5.30;;;18.70;99.90;;;;;;5015001;28;20071;-84
2023/08/25 02:04:21;;;;;;;8.60;6.60;;;18.70;99.90;;;;;;5018150;28;20018;-85
2023/08/25 02:06:46;;;;;;;7.65;6.90;;;18.80;99.90;;;;;;5017996;28;20041;-84
2023/08/25 02:09:14;;;;;;;7.03;6.43;;;18.80;99.90;;;;;;5019410;28;20028;-84
2023/08/25 02:11:39;;;;;;;7.75;7.05;;;18.80;99.90;;;;;;5024265;28;20036;-85
2023/08/25 02:14:05;;;;;;;7.57;6.88;;;18.80;99.90;;;;;;5019464;28;20104;-85
2023/08/25 02:16:31;;;;;;;7.90;7.20;;;18.80;99.90;;;;;;5018080;28;20033;-84
2023/08/25 02:18:57;;;;;;;10.18;8.40;;;18.80;99.90;;;;;;5022209;28;20033;-85
2023/08/25 02:21:22;;;;;;;9.77;7.47;;;18.80;99.90;;;;;;5021417;28;20033;-85
2023/08/25 02:23:48;;;;;;;9.48;8.10;;;18.80;99.90;;;;;;5013649;28;20026;-83
2023/08/25 02:26:14;;;;;;;8.82;8.00;;;18.80;99.90;;;;;;5017537;28;20018;-83
2023/08/25 02:28:40;;;;;;;8.90;8.00;;;18.80;99.90;;;;;;5017054;28;20437;-85
2023/08/25 02:31:05;;;;;;;10.32;8.60;;;18.80;99.90;;;;;;5018853;28;20508;-84
2023/08/25 02:33:31;;;;;;;8.90;8.10;;;18.70;99.90;;;;;;5020489;28;20033;-84
2023/08/25 02:35:57;;;;;;;9.00;8.20;;;18.80;99.90;;;;;;5021698;28;20028;-83
2023/08/25 02:38:22;;;;;;;11.98;10.27;;;18.80;99.90;;;;;;5012709;28;20041;-84
2023/08/25 02:40:48;;;;;;;11.98;10.75;;;18.80;99.90;;;;;;5032397;28;20018;-86
2023/08/25 02:43:13;;;;;;;13.40;10.95;;;18.80;99.90;;;;;;5020396;28;20029;-84
2023/08/25 02:45:41;;;;;;;10.90;9.90;;;18.80;99.90;;;;;;5022614;28;20025;-85
2023/08/25 02:48:07;;;;;;;11.07;10.02;;;18.80;99.90;;;;;;5018092;28;20037;-83
2023/08/25 02:50:33;;;;;;;13.25;12.00;;;18.80;99.90;;;;;;5021380;28;20025;-85
2023/08/25 02:52:59;;;;;;;12.90;10.73;;;18.80;99.90;;;;;;5020945;28;20080;-84
2023/08/25 02:55:24;;;;;;;13.85;10.95;;;18.70;99.90;;;;;;5022843;28;20030;-86
2023/08/25 02:57:51;;;;;;;14.60;10.90;;;18.70;99.90;;;;;;5024106;28;20484;-86
2023/08/25 03:00:23;;;;;;;13.98;11.40;;;18.70;99.90;;;;;;5032315;28;20075;-86
2023/08/25 03:02:49;;;;;;;12.32;11.13;;;18.80;99.90;;;;;;5021875;28;20017;-86
2023/08/25 03:05:14;;;;;;;13.55;10.50;;;18.70;99.90;;;;;;5024034;28;20036;-85
2023/08/25 03:07:40;;;;;;;12.35;11.15;;;18.70;99.90;;;;;;5020603;28;20026;-85
2023/08/25 03:10:07;;;;;;;11.80;10.70;;;18.70;99.90;;;;;;5019638;28;20035;-86
2023/08/25 03:12:33;;;;;;;11.50;10.30;;;18.70;99.90;;;;;;5017672;28;20784;-87
2023/08/25 03:14:58;;;;;;;11.88;10.68;;;18.70;99.90;;;;;;5020153;28;20022;-85
2023/08/25 03:17:25;;;;;;;11.10;10.00;;;18.70;99.90;;;;;;5028551;28;20267;-86
2023/08/25 03:19:50;;;;;;;12.50;11.23;;;18.70;99.90;;;;;;5027905;28;20021;-86
2023/08/25 03:22:16;;;;;;;13.50;10.93;;;18.70;99.90;;;;;;5026590;28;20030;-86
2023/08/25 03:24:41;;;;;;;12.18;10.90;;;18.70;99.90;;;;;;5022844;28;20025;-85
2023/08/25 03:27:07;;;;;;;12.80;11.45;;;18.60;99.90;;;;;;5014697;28;20040;-85
2023/08/25 03:29:33;;;;;;;13.23;11.25;;;18.60;99.90;;;;;;5029684;28;20029;-88
2023/08/25 03:31:59;;;;;;;14.63;12.02;;;18.60;99.90;;;;;;5025080;28;20034;-86
2023/08/25 03:34:25;;;;;;;12.43;11.20;;;18.60;99.90;;;;;;5027815;28;20044;-85
2023/08/25 03:36:51;;;;;;;14.48;12.98;;;18.60;99.90;;;;;;5016231;28;20057;-86
2023/08/25 03:39:16;;;;;;;15.05;12.93;;;18.60;99.90;;;;;;5024046;28;20022;-87
2023/08/25 03:41:42;;;;;;;15.27;13.88;;;18.60;99.90;;;;;;5019823;28;20017;-86
2023/08/25 03:44:07;;;;;;;13.65;12.35;;;18.50;99.90;;;;;;5023256;28;20117;-85
2023/08/25 03:46:33;;;;;;;14.63;13.10;;;18.50;99.90;;;;;;5022021;28;20156;-85
2023/08/25 03:48:59;;;;;;;14.00;12.02;;;18.50;99.90;;;;;;5014655;28;20464;-85
2023/08/25 03:51:25;;;;;;;14.50;13.05;;;18.50;99.90;;;;;;5020529;28;20030;-85
2023/08/25 03:53:51;;;;;;;14.05;12.13;;;18.50;99.90;;;;;;5029234;28;20031;-86
2023/08/25 03:56:16;;;;;;;16.23;14.63;;;18.50;99.90;;;;;;5020782;28;20419;-86
2023/08/25 03:58:42;;;;;;;15.20;13.63;;;18.50;99.90;;;;;;5027006;28;20022;-85
2023/08/25 04:01:08;;;;;;;17.20;13.73;;;18.50;99.90;;;;;;5013087;28;20088;-85
2023/08/25 04:03:33;;;;;;;18.58;15.85;;;18.50;99.90;;;;;;5029075;28;20091;-86
2023/08/25 04:05:59;;;;;;;17.38;15.02;;;18.50;99.90;;;;;;5022953;28;20014;-85
2023/08/25 04:08:25;;;;;;;15.88;13.85;;;18.50;99.90;;;;;;5020352;28;20128;-85
2023/08/25 04:10:52;;;;;;;15.82;14.15;;;18.50;99.90;;;;;;5018036;28;20116;-85
2023/08/25 04:13:18;;;;;;;15.23;13.60;;;18.40;99.90;;;;;;5021023;28;20465;-86
2023/08/25 04:15:43;;;;;;;17.50;14.48;;;18.40;99.90;;;;;;5022707;28;20068;-85
2023/08/25 04:18:09;;;;;;;15.32;13.45;;;18.40;99.90;;;;;;5022743;28;20049;-84
2023/08/25 04:20:35;;;;;;;17.27;15.48;;;18.40;99.90;;;;;;5030278;28;20030;-85
2023/08/25 04:23:03;;;;;;;16.58;14.13;;;18.40;99.90;;;;;;5026216;28;20042;-87
2023/08/25 04:25:29;;;;;;;16.80;14.32;;;18.40;99.90;;;;;;5020985;28;20167;-85
2023/08/25 04:27:56;;;;;;;18.67;16.58;;;18.40;99.90;;;;;;5028406;28;20029;-85
2023/08/25 04:30:22;;;;;;;19.45;15.13;;;18.40;99.90;;;;;;5020707;28;20026;-86
2023/08/25 04:32:49;;;;;;;20.45;16.10;;;18.40;99.90;;;;;;5026894;28;20018;-86
2023/08/25 04:35:15;;;;;;;15.68;13.63;;;18.40;99.90;;;;;;5019559;28;20034;-86
2023/08/25 04:37:43;;;;;;;18.13;16.23;;;18.40;99.90;;;;;;5014074;28;20077;-86
2023/08/25 04:40:09;;;;;;;18.27;16.30;;;18.40;99.90;;;;;;5019418;28;20025;-85
2023/08/25 04:42:35;;;;;;;20.02;17.33;;;18.40;99.90;;;;;;5021706;28;20033;-85
2023/08/25 04:45:03;;;;;;;18.15;16.25;;;18.40;99.90;;;;;;5024956;28;20022;-86
2023/08/25 04:47:29;;;;;;;20.10;16.60;;;18.40;99.90;;;;;;5020487;28;20061;-86
2023/08/25 04:49:57;;;;;;;19.30;15.68;;;18.40;99.90;;;;;;5018717;28;20033;-87
2023/08/25 04:52:23;;;;;;;19.42;17.38;;;18.40;99.90;;;;;;5019942;28;20055;-85
2023/08/25 04:54:49;;;;;;;20.83;16.50;;;18.40;99.90;;;;;;5025658;28;20112;-85
2023/08/25 04:57:14;;;;;;;20.90;17.42;;;18.40;99.90;;;;;;5024375;28;20520;-88
2023/08/25 04:59:40;;;;;;;20.75;16.60;;;18.40;99.90;;;;;;5019181;28;20030;-85
2023/08/25 05:02:06;;;;;;;20.90;18.10;;;18.50;99.90;;;;;;5022977;28;20433;-86
2023/08/25 05:04:31;;;;;;;27.13;18.42;;;18.50;99.90;;;;;;5022610;28;20021;-86
2023/08/25 05:06:57;;;;;;;18.73;16.75;;;18.50;99.90;;;;;;5021537;28;20476;-87
2023/08/25 05:09:22;;;;;;;22.05;18.88;;;18.60;99.90;;;;;;5020321;28;20059;-85
2023/08/25 05:11:48;;;;;;;21.38;17.02;;;18.60;99.90;;;;;;5019107;28;20476;-85
2023/08/25 05:14:13;;;;;;;24.10;18.75;;;18.60;99.90;;;;;;5018035;28;20022;-86
2023/08/25 05:16:39;;;;;;;18.67;16.67;;;18.70;99.90;;;;;;5014557;28;20030;-85
2023/08/25 05:19:05;;;;;;;16.67;14.80;;;18.70;99.90;;;;;;5017875;28;20034;-85
2023/08/25 05:21:31;;;;;;;20.85;17.08;;;18.70;99.90;;;;;;5021565;28;20018;-86
2023/08/25 05:24:35;;;;;;;22.13;19.83;;;18.80;99.90;;;;;;5021093;28;20017;-86
2023/08/25 05:27:00;;;;;;;24.10;19.90;;;18.80;99.90;;;;;;4940976;29;20031;-86
2023/08/25 05:29:27;;;;;;;21.20;17.08;;;18.90;99.90;;;;;;4938206;28;20035;-85
2023/08/25 05:31:54;;;;;;;22.00;19.23;;;18.90;99.90;;;;;;4979579;28;20116;-88
2023/08/25 05:34:20;;;;;;;25.02;20.15;;;18.90;99.90;;;;;;5021155;28;20073;-86
2023/08/25 05:36:45;;;;;;;24.15;17.75;;;19.00;99.90;;;;;;5012414;28;20050;-85
2023/08/25 05:39:12;;;;;;;22.33;19.90;;;19.00;99.90;;;;;;5022402;28;20029;-85
2023/08/25 05:41:37;;;;;;;27.20;20.15;;;19.00;99.90;;;;;;5024361;28;20017;-87
2023/08/25 05:44:03;;;;;;;30.05;22.58;;;19.10;99.90;;;;;;5020909;28;20461;-85
2023/08/25 05:46:30;;;;;;;27.80;22.55;;;19.10;99.90;;;;;;5024613;28;20418;-86
2023/08/25 05:48:56;;;;;;;26.95;23.75;;;19.10;99.90;;;;;;5018876;28;20018;-86
2023/08/25 05:51:22;;;;;;;25.48;21.23;;;19.10;99.90;;;;;;5017702;28;20030;-86
2023/08/25 05:53:47;;;;;;;26.58;23.67;;;19.20;99.90;;;;;;5021076;28;20033;-85
2023/08/25 05:56:13;;;;;;;27.80;22.65;;;19.20;99.90;;;;;;5014645;28;20033;-85
2023/08/25 05:58:40;;;;;;;26.65;22.20;;;19.20;99.90;;;;;;5011673;28;20018;-85
2023/08/25 06:01:06;;;;;;;34.45;26.48;;;19.20;99.90;;;;;;5014458;28;20050;-85
2023/08/25 06:03:31;;;;;;;36.72;28.58;;;19.20;99.90;;;;;;5027791;28;20079;-84
2023/08/25 06:05:57;;;;;;;32.80;25.00;;;19.30;99.90;;;;;;5017891;28;20029;-85
2023/08/25 06:08:22;;;;;;;32.95;25.70;;;19.30;99.90;;;;;;5022182;28;20573;-85
2023/08/25 06:10:52;;;;;;;38.17;28.65;;;19.30;99.90;;;;;;5022274;28;20038;-85
2023/08/25 06:13:17;;;;;;;33.17;26.63;;;19.30;99.90;;;;;;5006377;28;20017;-85
2023/08/25 06:15:43;;;;;;;31.15;24.25;;;19.40;99.90;;;;;;5019236;28;20025;-85
2023/08/25 06:18:08;;;;;;;36.53;29.30;;;19.40;99.90;;;;;;5022619;28;20025;-85
2023/08/25 06:20:35;;;;;;;32.65;26.55;;;19.40;99.90;;;;;;5016995;28;20172;-85
2023/08/25 06:23:00;;;;;;;37.28;26.90;;;19.50;99.90;;;;;;5026447;28;20470;-86
2023/08/25 06:25:26;;;;;;;31.88;26.23;;;19.50;99.90;;;;;;5013131;28;20028;-86
2023/08/25 06:27:52;;;;;;;31.38;26.30;;;19.50;99.90;;;;;;5021574;28;20022;-86
2023/08/25 06:30:18;;;;;;;38.42;29.35;;;19.60;99.90;;;;;;5014069;28;20018;-85
2023/08/25 06:32:44;;;;;;;35.55;28.63;;;19.60;99.90;;;;;;5024008;28;20103;-85
2023/08/25 06:35:11;;;;;;;33.80;27.48;;;19.70;99.90;;;;;;5028834;28;20030;-84
2023/08/25 06:37:37;;;;;;;37.17;29.15;;;19.80;99.90;;;;;;5014985;28;20049;-85
2023/08/25 06:40:07;;;;;;;34.22;29.00;;;19.80;99.90;;;;;;5025740;28;20030;-84
2023/08/25 06:42:34;;;;;;;35.05;29.00;;;19.80;99.90;;;;;;5013580;28;20022;-85
2023/08/25 06:44:59;;;;;;;41.72;30.70;;;19.80;99.90;;;;;;5017061;28;20033;-85
2023/08/25 06:47:27;;;;;;;34.17;27.17;;;19.80;99.90;;;;;;5014394;28;20172;-84
2023/08/25 06:49:53;;;;;;;37.60;28.67;;;19.80;99.90;;;;;;5027691;28;20021;-87
2023/08/25 06:52:20;;;;;;;36.72;28.70;;;19.90;99.90;;;;;;5036044;28;20010;-87
2023/08/25 06:54:46;;;;;;;34.70;27.45;;;19.90;99.90;;;;;;5027187;28;20038;-85
2023/08/25 06:57:11;;;;;;;33.00;27.13;;;20.00;99.90;;;;;;5016123;28;20022;-85
2023/08/25 06:59:37;;;;;;;37.53;28.40;;;20.00;99.90;;;;;;5024294;28;20037;-86
2023/08/25 07:02:03;;;;;;;36.83;27.95;;;20.00;99.90;;;;;;5022163;28;20060;-85
2023/08/25 07:04:29;;;;;;;37.13;28.00;;;20.00;99.90;;;;;;5022368;28;20593;-84
2023/08/25 07:06:54;;;;;;;35.83;26.58;;;20.10;99.90;;;;;;5025796;28;20021;-85
2023/08/25 07:09:20;;;;;;;34.63;26.75;;;20.10;99.90;;;;;;5024795;28;20040;-86
2023/08/25 07:11:46;;;;;;;33.38;26.70;;;20.10;99.90;;;;;;5029135;28;20033;-87
2023/08/25 07:14:11;;;;;;;33.80;27.33;;;20.10;99.90;;;;;;5026598;28;20025;-86
2023/08/25 07:16:37;;;;;;;32.47;24.45;;;20.20;99.90;;;;;;5026321;28;20086;-87
2023/08/25 07:19:03;;;;;;;37.17;26.42;;;20.20;99.90;;;;;;5027276;28;20041;-85
2023/08/25 07:21:29;;;;;;;30.85;24.48;;;20.30;99.90;;;;;;5026643;28;20025;-87
2023/08/25 07:23:55;;;;;;;32.60;25.33;;;20.40;99.90;;;;;;5024549;28;20017;-85
2023/08/25 07:26:21;;;;;;;30.83;25.60;;;20.60;99.90;;;;;;5023354;28;20022;-87
2023/08/25 07:28:47;;;;;;;35.42;27.13;;;20.80;99.90;;;;;;5019824;28;20105;-84
2023/08/25 07:31:12;;;;;;;28.65;23.13;;;21.00;99.90;;;;;;5024309;28;20025;-86
2023/08/25 07:33:39;;;;;;;26.73;21.17;;;21.00;99.90;;;;;;5015427;28;20026;-86
2023/08/25 07:36:05;;;;;;;27.10;21.70;;;21.10;99.90;;;;;;5018991;28;20021;-85
2023/08/25 07:38:30;;;;;;;26.80;20.20;;;21.10;99.90;;;;;;5014444;28;20018;-86
2023/08/25 07:40:56;;;;;;;22.55;19.13;;;21.10;99.90;;;;;;5020197;28;20393;-86
2023/08/25 07:43:22;;;;;;;25.95;21.40;;;21.20;99.90;;;;;;5019293;28;20396;-86
2023/08/25 07:45:48;;;;;;;25.08;20.30;;;21.30;99.90;;;;;;5015353;28;20009;-86
2023/08/25 07:48:14;;;;;;;23.85;20.17;;;21.40;99.90;;;;;;5024499;28;20025;-85
2023/08/25 07:50:40;;;;;;;23.13;19.17;;;21.40;99.90;;;;;;5015242;28;20025;-85
2023/08/25 07:53:06;;;;;;;25.77;20.13;;;21.40;99.90;;;;;;5020921;28;20477;-86
2023/08/25 07:55:32;;;;;;;25.98;22.15;;;21.40;99.90;;;;;;5021717;28;20496;-85
2023/08/25 07:57:58;;;;;;;21.70;18.17;;;21.40;99.90;;;;;;5016496;28;20017;-84
2023/08/25 08:00:26;;;;;;;25.73;20.80;;;21.50;99.90;;;;;;5014663;28;20410;-86
2023/08/25 08:02:52;;;;;;;25.70;19.92;;;21.50;99.90;;;;;;5023284;28;20056;-85
2023/08/25 08:05:18;;;;;;;22.92;17.15;;;21.40;99.90;;;;;;5014839;28;20401;-85
2023/08/25 08:07:48;;;;;;;15.48;13.88;;;21.40;99.90;;;;;;5022897;28;20029;-85
2023/08/25 08:10:13;;;;;;;18.85;15.90;;;21.40;99.90;;;;;;5024482;28;20064;-85
2023/08/25 08:12:39;;;;;;;17.52;15.20;;;21.40;99.90;;;;;;5020784;28;20025;-86
2023/08/25 08:15:06;;;;;;;20.80;15.80;;;21.30;99.90;;;;;;5024527;28;20516;-84
2023/08/25 08:17:32;;;;;;;17.40;14.15;;;21.40;99.90;;;;;;5020659;28;20018;-85
2023/08/25 08:19:58;;;;;;;16.13;12.80;;;21.40;99.90;;;;;;5016671;28;20033;-85
2023/08/25 08:22:23;;;;;;;16.08;14.02;;;21.50;99.90;;;;;;5022700;28;20152;-86
2023/08/25 08:24:50;;;;;;;19.27;15.13;;;21.60;99.90;;;;;;5019982;28;20014;-85
2023/08/25 08:27:16;;;;;;;20.08;15.48;;;21.60;99.90;;;;;;5022112;28;20117;-86
2023/08/25 08:29:42;;;;;;;16.00;13.45;;;21.70;99.90;;;;;;5021367;28;20350;-85
2023/08/25 08:32:08;;;;;;;17.35;15.32;;;21.70;99.90;;;;;;5010335;28;20034;-85
2023/08/25 08:34:35;;;;;;;15.80;13.50;;;21.80;99.90;;;;;;5024543;28;20056;-85
2023/08/25 08:37:00;;;;;;;17.05;13.20;;;21.80;99.90;;;;;;5019770;28;20022;-85
2023/08/25 08:39:27;;;;;;;16.58;13.60;;;21.90;99.90;;;;;;5020032;28;20029;-85
2023/08/25 08:41:53;;;;;;;17.08;14.48;;;21.90;99.90;;;;;;5018158;28;20025;-85
2023/08/25 08:44:19;;;;;;;17.25;14.00;;;21.90;99.90;;;;;;5023564;28;20463;-86
2023/08/25 08:46:48;;;;;;;15.85;13.15;;;22.00;99.90;;;;;;5018954;28;20049;-85
2023/08/25 08:49:14;;;;;;;19.88;17.27;;;21.90;99.90;;;;;;5015033;28;20022;-84
2023/08/25 08:51:42;;;;;;;24.05;16.00;;;21.90;99.90;;;;;;5020468;28;20029;-85
2023/08/25 08:54:09;;;;;;;23.40;16.65;;;21.90;99.90;;;;;;5020946;28;20176;-85
2023/08/25 08:56:35;;;;;;;15.15;13.55;;;21.90;99.90;;;;;;5013255;28;20026;-86
2023/08/25 08:59:03;;;;;;;18.85;15.88;;;21.90;99.90;;;;;;5023809;28;20033;-84
2023/08/25 09:01:30;;;;;;;14.57;12.65;;;21.90;99.90;;;;;;5018383;28;20836;-85
2023/08/25 09:04:00;;;;;;;16.75;13.50;;;22.00;99.90;;;;;;5024383;28;20038;-85
2023/08/25 09:06:28;;;;;;;15.23;13.68;;;22.10;99.90;;;;;;5011847;28;20034;-85
2023/08/25 09:08:57;;;;;;;20.42;15.45;;;22.20;99.90;;;;;;5021195;28;20029;-85
2023/08/25 09:11:23;;;;;;;18.83;15.43;;;22.40;99.90;;;;;;5019273;28;20014;-86
2023/08/25 09:13:57;;;;;;;16.23;14.52;;;22.50;99.90;;;;;;5020271;28;20077;-86
2023/08/25 09:16:24;;;;;;;19.83;15.20;;;22.60;99.90;;;;;;5021488;28;20042;-86
2023/08/25 09:18:51;;;;;;;18.90;16.10;;;22.50;99.90;;;;;;5007087;28;20013;-85
2023/08/25 09:21:20;;;;;;;17.42;14.10;;;22.60;99.90;;;;;;5021492;28;20052;-86
2023/08/25 09:23:54;;;;;;;15.70;14.13;;;22.50;99.90;;;;;;5020364;28;20440;-86
2023/08/25 09:26:20;;;;;;;15.98;14.27;;;22.60;99.90;;;;;;5015455;28;20565;-86
2023/08/25 09:28:46;;;;;;;15.90;13.85;;;22.60;99.90;;;;;;5022115;28;20072;-85
2023/08/25 09:31:25;;;;;;;16.73;13.20;;;22.60;99.90;;;;;;5019973;28;20037;-86
2023/08/25 09:33:52;;;;;;;19.77;15.80;;;22.50;99.90;;;;;;5017512;28;20353;-86
2023/08/25 09:36:18;;;;;;;14.85;13.23;;;22.50;99.90;;;;;;5018279;28;20029;-87
2023/08/25 09:38:48;;;;;;;15.48;13.05;;;22.40;99.90;;;;;;5020518;28;20163;-85
2023/08/25 09:41:22;;;;;;;16.55;13.07;;;22.40;99.90;;;;;;5013997;28;20030;-85
2023/08/25 09:43:48;;;;;;;17.38;14.20;;;22.50;99.90;;;;;;5008403;28;20025;-82
2023/08/25 09:46:14;;;;;;;20.63;14.35;;;22.60;99.90;;;;;;5009707;28;20034;-84
2023/08/25 09:48:40;;;;;;;18.70;16.83;;;22.60;99.90;;;;;;5009458;28;20053;-85
2023/08/25 09:51:06;;;;;;;18.15;15.02;;;22.60;99.90;;;;;;5010657;28;20053;-85
2023/08/25 09:53:33;;;;;;;14.85;13.32;;;22.50;99.90;;;;;;5017945;28;20096;-84
2023/08/25 09:56:06;;;;;;;14.60;12.82;;;22.50;99.90;;;;;;5011619;28;20653;-82
2023/08/25 09:58:33;;;;;;;14.15;12.27;;;22.50;99.90;;;;;;5020830;28;20029;-83
2023/08/25 10:00:59;;;;;;;64.88;31.15;;;22.50;99.90;;;;;;5013790;28;20073;-82
2023/08/25 10:03:25;;;;;;;90.10;45.20;;;22.50;99.90;;;;;;5021084;28;20447;-84
2023/08/25 10:05:50;;;;;;;20.38;15.30;;;22.60;99.90;;;;;;5017736;28;20111;-83
2023/08/25 10:08:16;;;;;;;41.05;21.63;;;22.70;99.90;;;;;;5019088;28;20034;-81
2023/08/25 10:10:44;;;;;;;50.30;30.88;;;22.70;99.90;;;;;;5026726;28;20481;-81
2023/08/25 10:13:13;;;;;;;26.60;16.65;;;22.80;99.90;;;;;;5020229;28;20030;-83
2023/08/25 10:15:42;;;;;;;15.60;13.07;;;22.80;99.90;;;;;;5026276;28;20109;-83
2023/08/25 10:18:08;;;;;;;13.43;12.02;;;22.70;99.90;;;;;;5020063;28;20466;-83
2023/08/25 10:20:38;;;;;;;14.05;12.27;;;22.70;99.90;;;;;;5029240;28;20021;-82
2023/08/25 10:23:04;;;;;;;12.68;11.38;;;22.70;99.90;;;;;;5019878;28;20096;-83
2023/08/25 10:25:31;;;;;;;16.00;12.23;;;22.70;99.90;;;;;;5021544;28;20098;-81
2023/08/25 10:28:03;;;;;;;12.73;10.95;;;22.70;99.90;;;;;;5022842;28;20111;-81
2023/08/25 10:30:30;;;;;;;13.50;11.15;;;22.70;99.90;;;;;;5020674;28;20038;-81
2023/08/25 10:32:58;;;;;;;14.15;10.38;;;22.70;99.90;;;;;;5019129;28;20026;-83
2023/08/25 10:35:40;;;;;;;11.95;9.93;;;22.80;99.90;;;;;;5020365;28;20026;-82
2023/08/25 10:38:18;;;;;;;11.75;9.02;;;22.90;99.90;;;;;;5020202;28;20065;-82
2023/08/25 10:40:55;;;;;;;21.15;12.57;;;22.90;99.90;;;;;;5030735;28;20048;-83
2023/08/25 10:43:23;;;;;;;12.45;9.77;;;23.00;99.90;;;;;;5040488;28;20032;-84
2023/08/25 10:45:52;;;;;;;14.32;11.38;;;23.00;99.90;;;;;;5024328;28;20028;-83
2023/08/25 10:48:21;;;;;;;10.68;8.95;;;23.00;99.90;;;;;;5024327;28;20037;-83
2023/08/25 10:50:47;;;;;;;10.10;7.97;;;23.10;99.90;;;;;;5023350;28;20030;-81
2023/08/25 10:53:44;;;;;;;10.40;8.00;;;23.10;99.90;;;;;;5019260;28;20033;-83
2023/08/25 10:56:21;;;;;;;12.63;9.38;;;23.10;99.90;;;;;;5015273;28;20022;-83
2023/08/25 10:59:07;;;;;;;71.60;15.40;;;23.10;99.90;;;;;;5023813;28;20026;-81
2023/08/25 11:01:42;;;;;;;11.77;9.25;;;23.00;99.90;;;;;;5015727;28;20064;-82
2023/08/25 11:04:19;;;;;;;9.68;8.63;;;23.00;99.90;;;;;;5022576;28;20484;-82
2023/08/25 11:06:46;;;;;;;14.30;9.95;;;23.00;99.90;;;;;;5020478;28;20044;-81
2023/08/25 11:09:18;;;;;;;10.88;9.32;;;22.90;99.90;;;;;;5021662;28;20373;-81
2023/08/25 11:11:47;;;;;;;11.55;9.18;;;22.90;99.90;;;;;;5023320;28;20049;-81
2023/08/25 11:14:13;;;;;;;10.85;8.85;;;22.90;99.90;;;;;;5022621;28;20036;-82
2023/08/25 11:16:42;;;;;;;13.52;9.70;;;22.90;99.90;;;;;;5028312;28;20018;-82
2023/08/25 11:19:13;;;;;;;9.82;8.90;;;22.80;99.90;;;;;;5023810;28;20066;-82
2023/08/25 11:21:39;;;;;;;17.85;9.20;;;22.80;99.90;;;;;;5022579;28;20026;-82
2023/08/25 11:24:05;;;;;;;12.68;10.15;;;22.80;99.90;;;;;;5022589;28;20489;-84
2023/08/25 11:26:34;;;;;;;11.00;9.77;;;22.70;99.90;;;;;;5020210;28;20014;-82
2023/08/25 11:29:01;;;;;;;10.73;9.27;;;22.70;99.90;;;;;;5020512;28;20017;-82
2023/08/25 11:31:27;;;;;;;10.73;7.60;;;22.70;99.90;;;;;;5014340;28;20532;-80
2023/08/25 11:33:54;;;;;;;9.95;8.05;;;22.70;99.90;;;;;;5022950;28;20033;-82
2023/08/25 11:36:24;;;;;;;9.45;7.80;;;22.70;99.90;;;;;;5023350;28;20500;-81
2023/08/25 11:38:50;;;;;;;9.32;7.68;;;22.70;99.90;;;;;;5021468;28;20041;-81
2023/08/25 11:41:17;;;;;;;10.13;8.23;;;22.70;99.90;;;;;;5022682;28;20026;-82
2023/08/25 11:43:45;;;;;;;18.08;9.50;;;22.70;99.90;;;;;;5019592;28;20010;-82
2023/08/25 11:46:11;;;;;;;12.48;9.90;;;22.70;99.90;;;;;;5023385;28;20025;-83
2023/08/25 11:48:37;;;;;;;12.40;9.73;;;22.70;99.90;;;;;;5023367;28;20022;-82
2023/08/25 11:51:03;;;;;;;12.90;9.15;;;22.70;99.90;;;;;;5012312;28;20129;-82
2023/08/25 11:53:30;;;;;;;11.23;9.32;;;22.60;99.90;;;;;;5020032;28;20033;-82
2023/08/25 11:56:03;;;;;;;8.63;7.22;;;22.60;99.90;;;;;;5019042;28;20092;-83
2023/08/25 11:58:30;;;;;;;8.18;7.05;;;22.60;99.90;;;;;;5026704;28;20029;-82
2023/08/25 12:01:06;;;;;;;10.88;8.98;;;22.50;99.90;;;;;;5013120;28;20134;-83
2023/08/25 12:03:36;;;;;;;9.45;7.80;;;22.50;99.90;;;;;;5019660;28;20055;-81
2023/08/25 12:06:05;;;;;;;11.20;8.10;;;22.40;99.90;;;;;;5015939;28;20136;-82
2023/08/25 12:08:31;;;;;;;12.13;8.10;;;22.30;99.90;;;;;;5014250;28;20100;-82
2023/08/25 12:10:57;;;;;;;10.65;8.98;;;22.30;99.90;;;;;;5017811;28;20036;-81
2023/08/25 12:13:24;;;;;;;8.93;7.68;;;22.30;99.90;;;;;;5015399;28;20639;-80
2023/08/25 12:15:53;;;;;;;10.18;8.38;;;22.20;99.90;;;;;;5012181;28;20116;-83
2023/08/25 12:18:20;;;;;;;11.60;8.07;;;22.20;99.90;;;;;;5015786;28;20503;-81
2023/08/25 12:20:46;;;;;;;8.98;7.47;;;22.20;99.90;;;;;;5024163;28;20029;-83
2023/08/25 12:23:13;;;;;;;14.23;8.93;;;22.30;99.90;;;;;;5018889;28;20033;-82
2023/08/25 12:25:42;;;;;;;11.65;8.80;;;22.30;99.90;;;;;;5013071;28;20037;-82
2023/08/25 12:28:07;;;;;;;7.97;7.18;;;22.30;99.90;;;;;;5011066;28;20026;-83
2023/08/25 12:30:33;;;;;;;8.45;7.43;;;22.30;99.90;;;;;;5022061;28;20033;-82
2023/08/25 12:32:59;;;;;;;9.07;8.13;;;22.40;99.90;;;;;;5021227;28;20018;-81